Latest METARs, TAFs and NOTAMs for SKCG


---------------------------------------------------------------------------
	(OBSERVATIONS)
SKCG 221000Z 05004KT CAVOK 24/22 A2982 METAR SKBQ 221000Z 36014KT
    9999 SCT015 25/22 A2983=
SKCG 220900Z 04004KT 9999 FEW020 25/22 A2981=
SKCG 220800Z 01007KT 9999 FEW018 25/23 A2981 METAR SKBQ 220800Z
    36014KT 9999 BKN015 25/22 A2982=
---------------------------------------------------------------------------
	(TERMINAL AREA FORECAST)
SKCG 221100Z 2212/2312 36012KT 9999 FEW018
    TEMPO 2212/2213 9000 SCT015
    TEMPO 2219/2222 SCT017TCU
    TEMPO 2310/2312 9000 SCT012 TX32/2218Z TN24/2311Z=
---------------------------------------------------------------------------
	(NOTAMS)


SKCG A0266/17 RWY 01/19 PRESENCE OF UNDULATION FST 1200M RWY
    01, EXER CTN. 26 JAN 15:32 2017 UNTIL 26 APR 23:59 2017 ESTIMATED.
    CREATED: 26 JAN 15:35 2017

SKCG A0354/17 OBST INSTL NXT COORD: P1: 102719.13N0753041.41W
    HGT 22M P2: 102721.63N0753040.93W HGT 22M P3: 102722.86N0753039.60W
    HGT 22M P4: 102721.83N0753038.63W HGT 22M. 03 FEB 05:00 2017
    UNTIL 31 MAR 05:00 2017. CREATED: 02 FEB 13:18 2017

SKCG A0496/17 RWY 01/19 CLSD. DLY BTN 0530-1100 FEB 18 BTN 0600-1100,
    18 FEB 06:00 2017 UNTIL 28 FEB 11:00 2017. CREATED: 18 FEB
    03:54 2017

SKCG A2997/09 FIRE FIGHTING AND RESCUE DOWNGRADED TO CAT 7 09
    DEC 20:30 UNTIL 10 DEC 23:00 ESTIMATED

SKCG A3345/16 OMNIDIRECTIONAL SID RWY 19 SKCG: TKOF RWY 19, KEEP
    RWY HDG TO ALT 500FT THEN INTERCEPT AND CONTINUE VIA RDL
    005 TO VOR/CTG, CROSS FIX 7NM RDL 005 VOR/CTG TO 2000FT OR
    UPPER KEEP MIN PDG 5.5? TIL 2000FT THEN PREVIOUS VECTORIAL
    GUIDE AND ATC INSTRUCTIONS TO PROCEED ACCORDING TO PLN REF
    AIP SKCG. 18 SEP 13:45 2016 UNTIL PERM. CREATED: 18 SEP 14:00
    2016

SKCG A4548/16 AWS U/S. 05 DEC 13:37 2016 UNTIL 06 MAR 23:59 2017
    ESTIMATED. CREATED: 05 DEC 13:37 2016

---------------------------------------------------------------------------